sensor_id;sensor_type;location;lat;lon;timestamp;P1;durP1;ratioP1;P2;durP2;ratioP2
42832;SDS011;64089;51.478;5.692;2023-02-10T00:01:41;57.92;;;22.25;;
42832;SDS011;64089;51.478;5.692;2023-02-10T00:04:07;50.97;;;20.38;;
42832;SDS011;64089;51.478;5.692;2023-02-10T00:06:34;51.70;;;21.88;;
42832;SDS011;64089;51.478;5.692;2023-02-10T00:09:00;58.38;;;22.13;;
42832;SDS011;64089;51.478;5.692;2023-02-10T00:11:27;59.50;;;20.52;;
42832;SDS011;64089;51.478;5.692;2023-02-10T00:14:13;48.47;;;19.73;;
42832;SDS011;64089;51.478;5.692;2023-02-10T00:16:41;46.65;;;20.17;;
42832;SDS011;64089;51.478;5.692;2023-02-10T00:19:07;57.42;;;21.25;;
42832;SDS011;64089;51.478;5.692;2023-02-10T00:21:33;57.05;;;21.50;;
42832;SDS011;64089;51.478;5.692;2023-02-10T00:23:58;56.58;;;21.25;;
42832;SDS011;64089;51.478;5.692;2023-02-10T00:26:24;42.47;;;19.75;;
42832;SDS011;64089;51.478;5.692;2023-02-10T00:28:51;48.13;;;19.00;;
42832;SDS011;64089;51.478;5.692;2023-02-10T00:31:16;48.25;;;18.67;;
42832;SDS011;64089;51.478;5.692;2023-02-10T00:33:43;46.42;;;20.17;;
42832;SDS011;64089;51.478;5.692;2023-02-10T00:36:10;48.88;;;19.13;;
42832;SDS011;64089;51.478;5.692;2023-02-10T00:38:37;54.28;;;19.10;;
42832;SDS011;64089;51.478;5.692;2023-02-10T00:41:04;51.50;;;20.92;;
42832;SDS011;64089;51.478;5.692;2023-02-10T00:43:31;49.75;;;19.95;;
42832;SDS011;64089;51.478;5.692;2023-02-10T00:45:57;47.70;;;18.75;;
42832;SDS011;64089;51.478;5.692;2023-02-10T00:48:23;49.40;;;19.35;;
42832;SDS011;64089;51.478;5.692;2023-02-10T00:50:49;51.58;;;19.50;;
42832;SDS011;64089;51.478;5.692;2023-02-10T00:53:14;39.75;;;17.42;;
42832;SDS011;64089;51.478;5.692;2023-02-10T00:55:40;43.00;;;19.52;;
42832;SDS011;64089;51.478;5.692;2023-02-10T00:58:06;42.88;;;19.48;;
42832;SDS011;64089;51.478;5.692;2023-02-10T01:00:31;49.08;;;18.95;;
42832;SDS011;64089;51.478;5.692;2023-02-10T01:02:57;46.28;;;18.95;;
42832;SDS011;64089;51.478;5.692;2023-02-10T01:05:22;45.67;;;20.05;;
42832;SDS011;64089;51.478;5.692;2023-02-10T01:07:48;40.58;;;18.75;;
42832;SDS011;64089;51.478;5.692;2023-02-10T01:10:14;48.20;;;18.77;;
42832;SDS011;64089;51.478;5.692;2023-02-10T01:12:39;41.17;;;19.67;;
42832;SDS011;64089;51.478;5.692;2023-02-10T01:15:05;49.72;;;19.75;;
42832;SDS011;64089;51.478;5.692;2023-02-10T01:17:31;47.40;;;20.30;;
42832;SDS011;64089;51.478;5.692;2023-02-10T01:19:57;45.08;;;19.35;;
42832;SDS011;64089;51.478;5.692;2023-02-10T01:22:22;46.25;;;19.83;;
42832;SDS011;64089;51.478;5.692;2023-02-10T01:24:48;44.00;;;20.08;;
42832;SDS011;64089;51.478;5.692;2023-02-10T01:27:14;51.13;;;20.10;;
42832;SDS011;64089;51.478;5.692;2023-02-10T01:29:39;42.90;;;18.83;;
42832;SDS011;64089;51.478;5.692;2023-02-10T01:32:05;44.80;;;19.67;;
42832;SDS011;64089;51.478;5.692;2023-02-10T01:34:31;41.05;;;18.95;;
42832;SDS011;64089;51.478;5.692;2023-02-10T01:36:56;46.78;;;18.90;;
42832;SDS011;64089;51.478;5.692;2023-02-10T01:39:22;48.17;;;19.25;;
42832;SDS011;64089;51.478;5.692;2023-02-10T01:41:47;57.35;;;20.48;;
42832;SDS011;64089;51.478;5.692;2023-02-10T01:46:45;40.13;;;17.38;;
42832;SDS011;64089;51.478;5.692;2023-02-10T01:49:13;40.72;;;18.83;;
42832;SDS011;64089;51.478;5.692;2023-02-10T01:51:46;41.30;;;17.67;;
42832;SDS011;64089;51.478;5.692;2023-02-10T01:54:19;49.97;;;19.10;;
42832;SDS011;64089;51.478;5.692;2023-02-10T01:56:49;45.35;;;19.05;;
42832;SDS011;64089;51.478;5.692;2023-02-10T01:59:16;43.20;;;19.17;;
42832;SDS011;64089;51.478;5.692;2023-02-10T02:01:44;39.78;;;17.65;;
42832;SDS011;64089;51.478;5.692;2023-02-10T02:04:10;48.00;;;18.88;;
42832;SDS011;64089;51.478;5.692;2023-02-10T02:06:36;49.45;;;18.52;;
42832;SDS011;64089;51.478;5.692;2023-02-10T02:09:02;55.40;;;19.90;;
42832;SDS011;64089;51.478;5.692;2023-02-10T02:11:47;52.20;;;20.48;;
42832;SDS011;64089;51.478;5.692;2023-02-10T02:28:39;48.70;;;21.27;;
42832;SDS011;64089;51.478;5.692;2023-02-10T02:31:35;53.10;;;20.98;;
42832;SDS011;64089;51.478;5.692;2023-02-10T02:34:42;55.70;;;21.88;;
42832;SDS011;64089;51.478;5.692;2023-02-10T02:37:26;54.85;;;20.55;;
42832;SDS011;64089;51.478;5.692;2023-02-10T02:39:55;51.47;;;21.45;;
42832;SDS011;64089;51.478;5.692;2023-02-10T02:42:28;47.90;;;22.15;;
42832;SDS011;64089;51.478;5.692;2023-02-10T02:44:59;53.72;;;22.15;;
42832;SDS011;64089;51.478;5.692;2023-02-10T02:59:08;55.47;;;22.20;;
42832;SDS011;64089;51.478;5.692;2023-02-10T03:01:59;53.28;;;22.13;;
42832;SDS011;64089;51.478;5.692;2023-02-10T03:04:29;56.08;;;22.77;;
42832;SDS011;64089;51.478;5.692;2023-02-10T03:06:58;51.22;;;21.60;;
42832;SDS011;64089;51.478;5.692;2023-02-10T03:09:24;52.20;;;23.17;;
42832;SDS011;64089;51.478;5.692;2023-02-10T03:11:50;51.20;;;23.10;;
42832;SDS011;64089;51.478;5.692;2023-02-10T03:14:15;64.15;;;21.83;;
42832;SDS011;64089;51.478;5.692;2023-02-10T03:16:41;53.17;;;21.35;;
42832;SDS011;64089;51.478;5.692;2023-02-10T03:19:07;51.92;;;22.05;;
42832;SDS011;64089;51.478;5.692;2023-02-10T03:21:32;46.58;;;21.40;;
42832;SDS011;64089;51.478;5.692;2023-02-10T03:23:58;53.97;;;23.13;;
42832;SDS011;64089;51.478;5.692;2023-02-10T03:26:25;55.03;;;23.73;;
42832;SDS011;64089;51.478;5.692;2023-02-10T03:28:52;60.17;;;23.58;;
42832;SDS011;64089;51.478;5.692;2023-02-10T03:31:18;53.78;;;21.33;;
42832;SDS011;64089;51.478;5.692;2023-02-10T03:33:43;55.28;;;21.38;;
42832;SDS011;64089;51.478;5.692;2023-02-10T03:36:09;51.13;;;20.75;;
42832;SDS011;64089;51.478;5.692;2023-02-10T03:38:35;56.63;;;22.38;;
42832;SDS011;64089;51.478;5.692;2023-02-10T03:41:01;55.33;;;22.27;;
42832;SDS011;64089;51.478;5.692;2023-02-10T03:43:26;52.65;;;21.10;;
42832;SDS011;64089;51.478;5.692;2023-02-10T03:45:52;64.57;;;24.13;;
42832;SDS011;64089;51.478;5.692;2023-02-10T03:48:17;56.47;;;23.45;;
42832;SDS011;64089;51.478;5.692;2023-02-10T03:50:43;55.47;;;22.08;;
42832;SDS011;64089;51.478;5.692;2023-02-10T03:53:09;52.63;;;22.15;;
42832;SDS011;64089;51.478;5.692;2023-02-10T03:55:35;57.78;;;22.98;;
42832;SDS011;64089;51.478;5.692;2023-02-10T03:58:01;69.35;;;21.95;;
42832;SDS011;64089;51.478;5.692;2023-02-10T04:00:28;53.25;;;21.35;;
42832;SDS011;64089;51.478;5.692;2023-02-10T04:02:54;56.65;;;23.88;;
42832;SDS011;64089;51.478;5.692;2023-02-10T04:05:20;55.85;;;23.30;;
42832;SDS011;64089;51.478;5.692;2023-02-10T04:07:46;58.10;;;23.40;;
42832;SDS011;64089;51.478;5.692;2023-02-10T04:10:12;64.60;;;25.35;;
42832;SDS011;64089;51.478;5.692;2023-02-10T04:12:37;72.72;;;25.75;;
42832;SDS011;64089;51.478;5.692;2023-02-10T04:15:04;67.45;;;24.15;;
42832;SDS011;64089;51.478;5.692;2023-02-10T04:17:31;72.38;;;24.08;;
42832;SDS011;64089;51.478;5.692;2023-02-10T04:19:56;79.47;;;25.88;;
42832;SDS011;64089;51.478;5.692;2023-02-10T04:22:22;60.33;;;24.27;;
42832;SDS011;64089;51.478;5.692;2023-02-10T04:24:48;74.57;;;26.42;;
42832;SDS011;64089;51.478;5.692;2023-02-10T04:27:13;81.47;;;28.50;;
42832;SDS011;64089;51.478;5.692;2023-02-10T04:29:39;85.45;;;27.73;;
42832;SDS011;64089;51.478;5.692;2023-02-10T04:32:06;79.82;;;28.40;;
42832;SDS011;64089;51.478;5.692;2023-02-10T04:34:32;74.57;;;26.65;;
42832;SDS011;64089;51.478;5.692;2023-02-10T04:36:58;89.57;;;28.08;;
42832;SDS011;64089;51.478;5.692;2023-02-10T04:39:24;96.90;;;28.80;;
42832;SDS011;64089;51.478;5.692;2023-02-10T04:41:50;88.53;;;26.50;;
42832;SDS011;64089;51.478;5.692;2023-02-10T04:44:15;100.63;;;28.35;;
42832;SDS011;64089;51.478;5.692;2023-02-10T04:46:41;94.15;;;28.13;;
42832;SDS011;64089;51.478;5.692;2023-02-10T04:49:07;85.32;;;28.70;;
42832;SDS011;64089;51.478;5.692;2023-02-10T04:51:32;98.25;;;30.50;;
42832;SDS011;64089;51.478;5.692;2023-02-10T04:53:58;80.32;;;27.75;;
42832;SDS011;64089;51.478;5.692;2023-02-10T04:56:23;86.13;;;27.70;;
42832;SDS011;64089;51.478;5.692;2023-02-10T04:58:49;112.35;;;29.25;;
42832;SDS011;64089;51.478;5.692;2023-02-10T05:01:15;86.13;;;29.10;;
42832;SDS011;64089;51.478;5.692;2023-02-10T05:03:40;89.13;;;29.13;;
42832;SDS011;64089;51.478;5.692;2023-02-10T05:06:07;93.60;;;28.50;;
42832;SDS011;64089;51.478;5.692;2023-02-10T05:08:34;88.22;;;28.38;;
42832;SDS011;64089;51.478;5.692;2023-02-10T05:11:01;85.85;;;27.48;;
42832;SDS011;64089;51.478;5.692;2023-02-10T05:13:27;83.90;;;29.75;;
42832;SDS011;64089;51.478;5.692;2023-02-10T05:15:52;73.32;;;26.85;;
42832;SDS011;64089;51.478;5.692;2023-02-10T05:18:18;82.40;;;26.95;;
42832;SDS011;64089;51.478;5.692;2023-02-10T05:20:43;77.72;;;27.05;;
42832;SDS011;64089;51.478;5.692;2023-02-10T05:23:09;86.30;;;27.92;;
42832;SDS011;64089;51.478;5.692;2023-02-10T05:25:34;94.63;;;25.75;;
42832;SDS011;64089;51.478;5.692;2023-02-10T05:28:00;92.85;;;27.98;;
42832;SDS011;64089;51.478;5.692;2023-02-10T05:30:26;83.78;;;27.15;;
42832;SDS011;64089;51.478;5.692;2023-02-10T05:32:51;87.78;;;28.42;;
42832;SDS011;64089;51.478;5.692;2023-02-10T05:35:17;82.75;;;27.30;;
42832;SDS011;64089;51.478;5.692;2023-02-10T05:37:42;76.45;;;26.65;;
42832;SDS011;64089;51.478;5.692;2023-02-10T05:40:08;89.20;;;27.77;;
42832;SDS011;64089;51.478;5.692;2023-02-10T05:42:34;82.43;;;27.73;;
42832;SDS011;64089;51.478;5.692;2023-02-10T05:44:59;69.07;;;25.70;;
42832;SDS011;64089;51.478;5.692;2023-02-10T05:47:25;93.22;;;26.88;;
42832;SDS011;64089;51.478;5.692;2023-02-10T05:49:51;89.55;;;27.83;;
42832;SDS011;64089;51.478;5.692;2023-02-10T05:52:16;78.50;;;25.80;;
42832;SDS011;64089;51.478;5.692;2023-02-10T05:54:42;107.63;;;26.45;;
42832;SDS011;64089;51.478;5.692;2023-02-10T05:57:07;84.00;;;25.02;;
42832;SDS011;64089;51.478;5.692;2023-02-10T05:59:33;90.35;;;24.90;;
42832;SDS011;64089;51.478;5.692;2023-02-10T06:01:59;76.05;;;24.20;;
42832;SDS011;64089;51.478;5.692;2023-02-10T06:04:24;84.53;;;27.35;;
42832;SDS011;64089;51.478;5.692;2023-02-10T06:06:50;72.53;;;24.77;;
42832;SDS011;64089;51.478;5.692;2023-02-10T06:09:16;85.25;;;24.30;;
42832;SDS011;64089;51.478;5.692;2023-02-10T06:11:42;84.60;;;25.13;;
42832;SDS011;64089;51.478;5.692;2023-02-10T06:14:07;88.07;;;25.90;;
42832;SDS011;64089;51.478;5.692;2023-02-10T06:16:33;93.65;;;27.38;;
42832;SDS011;64089;51.478;5.692;2023-02-10T06:18:59;95.50;;;27.52;;
42832;SDS011;64089;51.478;5.692;2023-02-10T06:21:24;80.70;;;26.33;;
42832;SDS011;64089;51.478;5.692;2023-02-10T06:23:50;92.43;;;26.92;;
42832;SDS011;64089;51.478;5.692;2023-02-10T06:26:17;81.10;;;25.13;;
42832;SDS011;64089;51.478;5.692;2023-02-10T06:28:43;88.85;;;26.05;;
42832;SDS011;64089;51.478;5.692;2023-02-10T06:31:09;83.47;;;25.50;;
42832;SDS011;64089;51.478;5.692;2023-02-10T06:33:34;82.88;;;26.30;;
42832;SDS011;64089;51.478;5.692;2023-02-10T06:36:01;84.38;;;25.13;;
42832;SDS011;64089;51.478;5.692;2023-02-10T06:38:30;92.65;;;26.02;;
42832;SDS011;64089;51.478;5.692;2023-02-10T06:41:00;84.50;;;26.05;;
42832;SDS011;64089;51.478;5.692;2023-02-10T06:43:26;88.88;;;26.38;;
42832;SDS011;64089;51.478;5.692;2023-02-10T06:45:51;82.20;;;26.33;;
42832;SDS011;64089;51.478;5.692;2023-02-10T06:48:17;75.40;;;26.60;;
42832;SDS011;64089;51.478;5.692;2023-02-10T06:50:43;96.15;;;28.00;;
42832;SDS011;64089;51.478;5.692;2023-02-10T06:53:08;98.78;;;28.85;;
42832;SDS011;64089;51.478;5.692;2023-02-10T06:55:34;101.65;;;27.70;;
42832;SDS011;64089;51.478;5.692;2023-02-10T06:58:00;94.10;;;27.55;;
42832;SDS011;64089;51.478;5.692;2023-02-10T07:00:26;88.20;;;27.27;;
42832;SDS011;64089;51.478;5.692;2023-02-10T07:02:52;112.90;;;27.02;;
42832;SDS011;64089;51.478;5.692;2023-02-10T07:05:18;83.32;;;26.40;;
42832;SDS011;64089;51.478;5.692;2023-02-10T07:07:47;103.15;;;28.13;;
42832;SDS011;64089;51.478;5.692;2023-02-10T07:10:13;106.43;;;29.88;;
42832;SDS011;64089;51.478;5.692;2023-02-10T07:12:38;86.18;;;25.98;;
42832;SDS011;64089;51.478;5.692;2023-02-10T07:15:04;110.63;;;31.02;;
42832;SDS011;64089;51.478;5.692;2023-02-10T07:17:30;100.95;;;31.70;;
42832;SDS011;64089;51.478;5.692;2023-02-10T07:19:57;99.03;;;27.95;;
42832;SDS011;64089;51.478;5.692;2023-02-10T07:22:22;99.20;;;29.95;;
42832;SDS011;64089;51.478;5.692;2023-02-10T07:24:48;96.22;;;29.83;;
42832;SDS011;64089;51.478;5.692;2023-02-10T07:27:14;88.75;;;28.15;;
42832;SDS011;64089;51.478;5.692;2023-02-10T07:29:39;103.65;;;29.42;;
42832;SDS011;64089;51.478;5.692;2023-02-10T07:32:05;98.85;;;28.90;;
42832;SDS011;64089;51.478;5.692;2023-02-10T07:34:31;91.03;;;26.85;;
42832;SDS011;64089;51.478;5.692;2023-02-10T07:36:59;105.13;;;29.70;;
42832;SDS011;64089;51.478;5.692;2023-02-10T07:39:25;104.07;;;29.73;;
42832;SDS011;64089;51.478;5.692;2023-02-10T07:41:51;88.32;;;27.17;;
42832;SDS011;64089;51.478;5.692;2023-02-10T07:44:17;91.13;;;26.45;;
42832;SDS011;64089;51.478;5.692;2023-02-10T07:46:45;95.72;;;26.70;;
42832;SDS011;64089;51.478;5.692;2023-02-10T07:49:11;78.82;;;24.08;;
42832;SDS011;64089;51.478;5.692;2023-02-10T07:51:37;97.75;;;27.67;;
42832;SDS011;64089;51.478;5.692;2023-02-10T07:54:02;98.03;;;26.80;;
42832;SDS011;64089;51.478;5.692;2023-02-10T07:56:28;113.35;;;30.10;;
42832;SDS011;64089;51.478;5.692;2023-02-10T07:58:54;93.95;;;28.52;;
42832;SDS011;64089;51.478;5.692;2023-02-10T08:01:20;95.57;;;26.15;;
42832;SDS011;64089;51.478;5.692;2023-02-10T08:03:46;99.65;;;27.50;;
42832;SDS011;64089;51.478;5.692;2023-02-10T08:06:11;107.57;;;26.63;;
42832;SDS011;64089;51.478;5.692;2023-02-10T08:08:37;89.40;;;27.25;;
42832;SDS011;64089;51.478;5.692;2023-02-10T08:11:03;90.22;;;24.98;;
42832;SDS011;64089;51.478;5.692;2023-02-10T08:13:30;98.05;;;28.35;;
42832;SDS011;64089;51.478;5.692;2023-02-10T08:15:55;74.18;;;25.55;;
42832;SDS011;64089;51.478;5.692;2023-02-10T08:18:21;95.13;;;27.48;;
42832;SDS011;64089;51.478;5.692;2023-02-10T08:20:46;91.00;;;26.48;;
42832;SDS011;64089;51.478;5.692;2023-02-10T08:23:16;89.95;;;27.48;;
42832;SDS011;64089;51.478;5.692;2023-02-10T08:25:45;88.70;;;25.88;;
42832;SDS011;64089;51.478;5.692;2023-02-10T08:28:10;70.25;;;25.35;;
42832;SDS011;64089;51.478;5.692;2023-02-10T08:30:36;81.93;;;27.02;;
42832;SDS011;64089;51.478;5.692;2023-02-10T08:33:02;85.20;;;26.60;;
42832;SDS011;64089;51.478;5.692;2023-02-10T08:35:27;82.47;;;25.42;;
42832;SDS011;64089;51.478;5.692;2023-02-10T08:37:53;80.78;;;24.13;;
42832;SDS011;64089;51.478;5.692;2023-02-10T08:40:22;76.97;;;24.00;;
42832;SDS011;64089;51.478;5.692;2023-02-10T08:42:47;84.32;;;24.08;;
42832;SDS011;64089;51.478;5.692;2023-02-10T08:45:13;80.15;;;23.45;;
42832;SDS011;64089;51.478;5.692;2023-02-10T08:47:39;65.78;;;22.92;;
42832;SDS011;64089;51.478;5.692;2023-02-10T08:50:08;73.15;;;23.27;;
42832;SDS011;64089;51.478;5.692;2023-02-10T08:52:34;78.35;;;25.02;;
42832;SDS011;64089;51.478;5.692;2023-02-10T08:54:59;81.82;;;24.52;;
42832;SDS011;64089;51.478;5.692;2023-02-10T08:57:26;72.72;;;23.02;;
42832;SDS011;64089;51.478;5.692;2023-02-10T08:59:52;70.15;;;23.08;;
42832;SDS011;64089;51.478;5.692;2023-02-10T09:02:18;72.38;;;23.08;;
42832;SDS011;64089;51.478;5.692;2023-02-10T09:04:43;68.47;;;23.33;;
42832;SDS011;64089;51.478;5.692;2023-02-10T09:07:09;77.70;;;23.90;;
42832;SDS011;64089;51.478;5.692;2023-02-10T09:09:39;76.30;;;21.95;;
42832;SDS011;64089;51.478;5.692;2023-02-10T09:12:06;84.20;;;24.00;;
42832;SDS011;64089;51.478;5.692;2023-02-10T09:14:35;77.43;;;23.02;;
42832;SDS011;64089;51.478;5.692;2023-02-10T09:17:01;93.32;;;24.65;;
42832;SDS011;64089;51.478;5.692;2023-02-10T09:19:27;68.15;;;21.90;;
42832;SDS011;64089;51.478;5.692;2023-02-10T09:21:53;65.97;;;21.70;;
42832;SDS011;64089;51.478;5.692;2023-02-10T09:24:20;87.30;;;25.13;;
42832;SDS011;64089;51.478;5.692;2023-02-10T09:26:46;74.65;;;24.50;;
42832;SDS011;64089;51.478;5.692;2023-02-10T09:29:12;82.18;;;23.38;;
42832;SDS011;64089;51.478;5.692;2023-02-10T09:31:38;75.03;;;22.50;;
42832;SDS011;64089;51.478;5.692;2023-02-10T09:34:04;71.32;;;23.52;;
42832;SDS011;64089;51.478;5.692;2023-02-10T09:36:30;60.13;;;20.77;;
42832;SDS011;64089;51.478;5.692;2023-02-10T09:38:56;70.22;;;21.98;;
42832;SDS011;64089;51.478;5.692;2023-02-10T09:41:26;68.90;;;22.85;;
42832;SDS011;64089;51.478;5.692;2023-02-10T09:52:45;109.72;;;40.22;;
42832;SDS011;64089;51.478;5.692;2023-02-10T09:55:13;89.25;;;30.30;;
42832;SDS011;64089;51.478;5.692;2023-02-10T09:57:47;67.72;;;23.27;;
42832;SDS011;64089;51.478;5.692;2023-02-10T10:02:52;78.72;;;23.95;;
42832;SDS011;64089;51.478;5.692;2023-02-10T10:05:22;73.28;;;24.25;;
42832;SDS011;64089;51.478;5.692;2023-02-10T10:07:52;74.22;;;23.05;;
42832;SDS011;64089;51.478;5.692;2023-02-10T10:10:35;69.53;;;23.83;;
42832;SDS011;64089;51.478;5.692;2023-02-10T10:13:27;76.95;;;23.40;;
42832;SDS011;64089;51.478;5.692;2023-02-10T10:16:09;75.45;;;23.77;;
42832;SDS011;64089;51.478;5.692;2023-02-10T10:19:05;73.78;;;22.88;;
42832;SDS011;64089;51.478;5.692;2023-02-10T10:25:00;70.28;;;23.15;;
42832;SDS011;64089;51.478;5.692;2023-02-10T10:30:24;80.10;;;23.15;;
42832;SDS011;64089;51.478;5.692;2023-02-10T10:33:23;70.65;;;22.77;;
42832;SDS011;64089;51.478;5.692;2023-02-10T10:36:01;70.72;;;23.85;;
42832;SDS011;64089;51.478;5.692;2023-02-10T10:38:32;70.40;;;22.55;;
42832;SDS011;64089;51.478;5.692;2023-02-10T10:41:03;65.18;;;21.33;;
42832;SDS011;64089;51.478;5.692;2023-02-10T10:43:38;72.65;;;23.33;;
42832;SDS011;64089;51.478;5.692;2023-02-10T10:46:16;67.32;;;22.33;;
42832;SDS011;64089;51.478;5.692;2023-02-10T10:48:48;71.47;;;20.75;;
42832;SDS011;64089;51.478;5.692;2023-02-10T10:51:14;78.80;;;23.55;;
42832;SDS011;64089;51.478;5.692;2023-02-10T10:53:46;62.40;;;21.27;;
42832;SDS011;64089;51.478;5.692;2023-02-10T10:59:13;64.07;;;20.90;;
42832;SDS011;64089;51.478;5.692;2023-02-10T11:01:46;74.28;;;22.67;;
42832;SDS011;64089;51.478;5.692;2023-02-10T11:06:40;61.33;;;19.67;;
42832;SDS011;64089;51.478;5.692;2023-02-10T11:09:16;59.20;;;19.60;;
42832;SDS011;64089;51.478;5.692;2023-02-10T11:11:46;63.90;;;20.75;;
42832;SDS011;64089;51.478;5.692;2023-02-10T11:16:46;52.53;;;18.67;;
42832;SDS011;64089;51.478;5.692;2023-02-10T11:19:22;62.10;;;19.77;;
42832;SDS011;64089;51.478;5.692;2023-02-10T11:21:50;62.85;;;18.92;;
42832;SDS011;64089;51.478;5.692;2023-02-10T11:26:58;59.85;;;20.08;;
42832;SDS011;64089;51.478;5.692;2023-02-10T11:29:27;48.40;;;18.20;;
42832;SDS011;64089;51.478;5.692;2023-02-10T11:31:54;50.25;;;17.52;;
42832;SDS011;64089;51.478;5.692;2023-02-10T11:34:26;45.35;;;17.00;;
42832;SDS011;64089;51.478;5.692;2023-02-10T11:36:55;59.17;;;19.30;;
42832;SDS011;64089;51.478;5.692;2023-02-10T11:39:28;65.13;;;19.80;;
42832;SDS011;64089;51.478;5.692;2023-02-10T11:42:06;58.10;;;19.48;;
42832;SDS011;64089;51.478;5.692;2023-02-10T11:44:51;48.92;;;18.17;;
42832;SDS011;64089;51.478;5.692;2023-02-10T11:47:22;49.75;;;17.67;;
42832;SDS011;64089;51.478;5.692;2023-02-10T11:49:48;49.90;;;19.02;;
42832;SDS011;64089;51.478;5.692;2023-02-10T11:52:15;46.88;;;19.17;;
42832;SDS011;64089;51.478;5.692;2023-02-10T11:54:54;51.40;;;18.73;;
42832;SDS011;64089;51.478;5.692;2023-02-10T12:06:52;41.47;;;13.95;;
42832;SDS011;64089;51.478;5.692;2023-02-10T12:09:36;42.63;;;14.80;;
42832;SDS011;64089;51.478;5.692;2023-02-10T12:15:26;45.83;;;18.20;;
42832;SDS011;64089;51.478;5.692;2023-02-10T12:18:12;47.92;;;17.27;;
42832;SDS011;64089;51.478;5.692;2023-02-10T12:23:57;60.72;;;24.58;;
42832;SDS011;64089;51.478;5.692;2023-02-10T12:26:31;84.97;;;34.35;;
42832;SDS011;64089;51.478;5.692;2023-02-10T12:42:51;34.03;;;13.55;;
42832;SDS011;64089;51.478;5.692;2023-02-10T12:48:09;39.47;;;15.48;;
42832;SDS011;64089;51.478;5.692;2023-02-10T12:53:44;31.77;;;14.75;;
42832;SDS011;64089;51.478;5.692;2023-02-10T12:56:35;31.73;;;14.80;;
42832;SDS011;64089;51.478;5.692;2023-02-10T13:01:56;37.15;;;16.40;;
42832;SDS011;64089;51.478;5.692;2023-02-10T13:04:26;29.60;;;13.55;;
42832;SDS011;64089;51.478;5.692;2023-02-10T13:07:00;34.30;;;14.80;;
42832;SDS011;64089;51.478;5.692;2023-02-10T13:09:50;37.88;;;14.13;;
42832;SDS011;64089;51.478;5.692;2023-02-10T13:12:41;35.65;;;14.43;;
42832;SDS011;64089;51.478;5.692;2023-02-10T13:15:14;39.03;;;15.35;;
42832;SDS011;64089;51.478;5.692;2023-02-10T13:17:48;33.65;;;13.90;;
42832;SDS011;64089;51.478;5.692;2023-02-10T13:22:52;33.03;;;13.68;;
42832;SDS011;64089;51.478;5.692;2023-02-10T13:36:15;31.33;;;13.02;;
42832;SDS011;64089;51.478;5.692;2023-02-10T13:38:46;26.58;;;13.05;;
42832;SDS011;64089;51.478;5.692;2023-02-10T13:41:24;35.95;;;12.95;;
42832;SDS011;64089;51.478;5.692;2023-02-10T13:44:14;34.00;;;12.45;;
42832;SDS011;64089;51.478;5.692;2023-02-10T13:47:32;24.15;;;10.85;;
42832;SDS011;64089;51.478;5.692;2023-02-10T13:52:32;32.03;;;12.70;;
42832;SDS011;64089;51.478;5.692;2023-02-10T13:57:35;30.08;;;12.73;;
42832;SDS011;64089;51.478;5.692;2023-02-10T14:00:14;31.63;;;13.25;;
42832;SDS011;64089;51.478;5.692;2023-02-10T14:02:41;27.45;;;12.68;;
42832;SDS011;64089;51.478;5.692;2023-02-10T14:05:25;28.48;;;13.13;;
42832;SDS011;64089;51.478;5.692;2023-02-10T14:07:57;27.17;;;12.18;;
42832;SDS011;64089;51.478;5.692;2023-02-10T14:15:34;28.92;;;14.73;;
42832;SDS011;64089;51.478;5.692;2023-02-10T14:18:06;34.17;;;15.13;;
42832;SDS011;64089;51.478;5.692;2023-02-10T14:23:27;43.35;;;15.45;;
42832;SDS011;64089;51.478;5.692;2023-02-10T14:25:56;31.13;;;14.60;;
42832;SDS011;64089;51.478;5.692;2023-02-10T14:28:28;37.33;;;14.52;;
42832;SDS011;64089;51.478;5.692;2023-02-10T14:31:02;28.50;;;13.90;;
42832;SDS011;64089;51.478;5.692;2023-02-10T14:33:32;29.33;;;13.47;;
42832;SDS011;64089;51.478;5.692;2023-02-10T14:36:00;28.90;;;12.63;;
42832;SDS011;64089;51.478;5.692;2023-02-10T14:38:29;48.88;;;22.58;;
42832;SDS011;64089;51.478;5.692;2023-02-10T14:40:57;91.53;;;34.63;;
42832;SDS011;64089;51.478;5.692;2023-02-10T14:43:25;90.75;;;35.75;;
42832;SDS011;64089;51.478;5.692;2023-02-10T14:45:53;55.13;;;21.25;;
42832;SDS011;64089;51.478;5.692;2023-02-10T14:48:21;32.55;;;13.18;;
42832;SDS011;64089;51.478;5.692;2023-02-10T14:53:42;25.90;;;12.80;;
42832;SDS011;64089;51.478;5.692;2023-02-10T14:56:16;39.35;;;15.02;;
42832;SDS011;64089;51.478;5.692;2023-02-10T14:58:53;33.08;;;15.15;;
42832;SDS011;64089;51.478;5.692;2023-02-10T15:03:52;40.50;;;15.85;;
42832;SDS011;64089;51.478;5.692;2023-02-10T15:06:20;32.38;;;14.73;;
42832;SDS011;64089;51.478;5.692;2023-02-10T15:08:52;43.72;;;16.33;;
42832;SDS011;64089;51.478;5.692;2023-02-10T15:11:38;42.63;;;16.97;;
42832;SDS011;64089;51.478;5.692;2023-02-10T15:14:26;40.25;;;16.25;;
42832;SDS011;64089;51.478;5.692;2023-02-10T15:17:00;34.20;;;15.05;;
42832;SDS011;64089;51.478;5.692;2023-02-10T15:19:28;31.83;;;14.82;;
42832;SDS011;64089;51.478;5.692;2023-02-10T15:21:54;38.85;;;15.68;;
42832;SDS011;64089;51.478;5.692;2023-02-10T15:24:38;39.28;;;14.23;;
42832;SDS011;64089;51.478;5.692;2023-02-10T15:27:21;40.47;;;15.93;;
42832;SDS011;64089;51.478;5.692;2023-02-10T15:29:47;37.83;;;17.45;;
42832;SDS011;64089;51.478;5.692;2023-02-10T15:32:15;39.83;;;16.92;;
42832;SDS011;64089;51.478;5.692;2023-02-10T15:34:42;42.35;;;17.30;;
42832;SDS011;64089;51.478;5.692;2023-02-10T15:37:18;35.65;;;16.52;;
42832;SDS011;64089;51.478;5.692;2023-02-10T15:39:56;42.95;;;17.08;;
42832;SDS011;64089;51.478;5.692;2023-02-10T15:42:26;41.53;;;17.98;;
42832;SDS011;64089;51.478;5.692;2023-02-10T15:45:10;45.83;;;17.67;;
42832;SDS011;64089;51.478;5.692;2023-02-10T15:50:10;44.88;;;17.60;;
42832;SDS011;64089;51.478;5.692;2023-02-10T15:52:41;42.78;;;16.40;;
42832;SDS011;64089;51.478;5.692;2023-02-10T15:57:43;38.10;;;15.88;;
42832;SDS011;64089;51.478;5.692;2023-02-10T16:00:16;35.25;;;16.60;;
42832;SDS011;64089;51.478;5.692;2023-02-10T16:02:42;38.60;;;15.80;;
42832;SDS011;64089;51.478;5.692;2023-02-10T16:05:08;34.45;;;14.65;;
42832;SDS011;64089;51.478;5.692;2023-02-10T16:07:34;37.75;;;15.85;;
42832;SDS011;64089;51.478;5.692;2023-02-10T16:09:59;33.97;;;14.07;;
42832;SDS011;64089;51.478;5.692;2023-02-10T16:12:25;34.92;;;15.00;;
42832;SDS011;64089;51.478;5.692;2023-02-10T16:14:51;36.90;;;16.25;;
42832;SDS011;64089;51.478;5.692;2023-02-10T16:17:26;39.92;;;14.45;;
42832;SDS011;64089;51.478;5.692;2023-02-10T16:19:54;30.17;;;14.63;;
42832;SDS011;64089;51.478;5.692;2023-02-10T16:22:20;35.70;;;14.73;;
42832;SDS011;64089;51.478;5.692;2023-02-10T16:24:46;38.60;;;14.60;;
42832;SDS011;64089;51.478;5.692;2023-02-10T16:27:13;32.05;;;14.15;;
42832;SDS011;64089;51.478;5.692;2023-02-10T16:29:39;39.78;;;13.18;;
42832;SDS011;64089;51.478;5.692;2023-02-10T16:32:04;34.53;;;14.05;;
42832;SDS011;64089;51.478;5.692;2023-02-10T16:34:35;35.55;;;14.73;;
42832;SDS011;64089;51.478;5.692;2023-02-10T16:37:01;34.47;;;13.00;;
42832;SDS011;64089;51.478;5.692;2023-02-10T16:39:27;34.03;;;14.07;;
42832;SDS011;64089;51.478;5.692;2023-02-10T16:41:53;35.65;;;14.65;;
42832;SDS011;64089;51.478;5.692;2023-02-10T16:44:19;39.30;;;14.30;;